Indianapolis, IN (46244)

12:58 AM EDT on August 20, 2014 (GMT -0400)
North Fountain Square | Change Station
CLOSE
Current Station
Personal Weather Station
Location: Indianapolis, IN
Elevation: 738 ft
Nearby Weather Stations
Active Advisory: Areal Flood Advisory Active Notice: Local Storm Report

Elev 738 ft 39.76 °N, 86.14 °W | Updated 2 seconds ago

Overcast
Overcast
68.2 °F
Feels Like 68.2 °F
N
0.0
Wind Variable Wind from WSW
Gusts 0.0 mph

Today
High -- | Low -- °F
--% Chance of Precip.
Yesterday
High -- | Low -- °F
Precip. -- in
7:01 AM 8:33 PM
Waning Crescent, 24% visible
Pressure 29.83 in
Visibility 10.0 miles
Clouds Few 7000 ft
Overcast 23000 ft
Dew Point 68 °F
Humidity 99%
Rainfall 0.00 in
Snow Depth Not available.
UV 0 out of 12
Pollen 10.30 out of 12
Ozone Good
PM2.5 Moderate
Flu Activity Not available.
SPECI KIND 200433Z 18005KT 10SM FEW070 OVC230 20/17 A2983 RMK AO2 RAE33 TSE33 CONS LTGCGICCC DSNT SE-SW CB DSNT SE-SW P0000 T02000172

More Conditions Fewer Conditions

Pressure 29.83 in
Visibility 10.0 miles
Clouds Few 7000 ft
Overcast 23000 ft
Dew Point 68 °F
Humidity 99%
Rainfall 0.00 in
Snow Depth Not available.
UV 0 out of 12
Pollen 10.30 out of 12
Ozone Good
PM2.5 Moderate
Flu Activity Not available.
SPECI KIND 200433Z 18005KT 10SM FEW070 OVC230 20/17 A2983 RMK AO2 RAE33 TSE33 CONS LTGCGICCC DSNT SE-SW CB DSNT SE-SW P0000 T02000172

More Conditions Fewer Conditions

10-Day Weather Forecast

Almanac

Astronomy

Aug. 20, 2014 Rise Set
Actual Time 7:01 AM EDT 8:33 PM EDT
Civil Twilight 6:32 AM EDT 9:02 PM EDT
Nautical Twilight 5:58 AM EDT 9:36 PM EDT
Astronomical Twilight 5:22 AM EDT 10:12 PM EDT
Moon 2:41 AM EDT 5:18 PM EDT
Length of Visible Light 14h 29m
Length of Day
13h 32m
Tomorrow will be 2m 22s shorter.
Waning Crescent, 24% of the Moon is Illuminated
Today
Waning Crescent
Aug 25
New
Sep 2
First Quarter
Sep 8
Full
Sep 15
Last Quarter

Today's Extremes

State Highs State Lows

Community

WunderPhotos

Upload Photos

1,745,585 photos uploaded!

Nearby

Air Quality

  Air Quality AQ Index Pollutant
Yesterday Good
PM10
Yesterday Good
OZONE
Current Moderate
PM2.5
Current Good
OZONE
Tuesday Moderate
PM2.5
Tuesday Good
OZONE
Wednesday Moderate
PM2.5
Wednesday Good
OZONE

Snow Depth

Station Depth Elevation
No new snow has been reported.

Earthquake Activity

City Distance Mag. Time & Date
No recent earthquake activity has been reported nearby.
Minimum magnitude displayed is 2.5.

Coastal Water Temperatures

Place Temperature
No Stations Reporting

Nearby Weather Stations